createdAt,value
2022-10-26T00:01:57.869Z,13.73
2022-10-26T00:06:59.404Z,13.72
2022-10-26T00:12:00.892Z,13.70
2022-10-26T00:17:02.310Z,13.69
2022-10-26T00:22:03.901Z,13.70
2022-10-26T00:27:05.645Z,13.73
2022-10-26T00:32:07.159Z,13.79
2022-10-26T00:37:09.653Z,13.82
2022-10-26T00:42:22.504Z,13.84
2022-10-26T00:47:41.916Z,13.89
2022-10-26T00:52:43.604Z,13.91
2022-10-26T00:57:45.066Z,13.96
2022-10-26T01:02:49.338Z,13.99
2022-10-26T01:07:52.110Z,14.01
2022-10-26T01:12:56.050Z,13.99
2022-10-26T01:18:15.940Z,14.01
2022-10-26T01:23:34.133Z,14.00
2022-10-26T01:29:02.127Z,13.84
2022-10-26T01:34:14.189Z,13.84
2022-10-26T01:39:28.125Z,13.88
2022-10-26T01:44:39.569Z,13.91
2022-10-26T01:49:50.334Z,13.98
2022-10-26T01:54:51.905Z,14.00
2022-10-26T02:00:12.208Z,14.02
2022-10-26T02:05:25.374Z,14.03
2022-10-26T02:10:47.920Z,14.03
2022-10-26T02:16:17.364Z,13.99
2022-10-26T02:21:25.794Z,13.97
2022-10-26T02:26:30.667Z,13.93
2022-10-26T02:31:33.935Z,13.85
2022-10-26T02:36:39.188Z,13.70
2022-10-26T02:41:43.830Z,13.65
2022-10-26T02:46:45.716Z,13.65
2022-10-26T02:51:56.264Z,13.58
2022-10-26T02:57:07.673Z,13.48
2022-10-26T03:02:09.470Z,13.46
2022-10-26T03:07:10.987Z,13.50
2022-10-26T03:12:12.408Z,13.58
2022-10-26T03:17:13.839Z,13.61
2022-10-26T03:22:15.448Z,13.62
2022-10-26T03:27:16.977Z,13.71
2022-10-26T03:32:18.789Z,13.68
2022-10-26T03:37:20.201Z,13.67
2022-10-26T03:42:21.651Z,13.67
2022-10-26T03:47:23.136Z,13.67
2022-10-26T03:52:24.780Z,13.73
2022-10-26T03:57:26.309Z,13.78
2022-10-26T04:02:27.731Z,13.79
2022-10-26T04:07:29.223Z,13.71
2022-10-26T04:12:30.629Z,13.47
2022-10-26T04:17:32.303Z,13.32
2022-10-26T04:22:33.727Z,13.27
2022-10-26T04:27:35.543Z,13.34
2022-10-26T04:32:37.083Z,13.29
2022-10-26T04:37:38.511Z,13.40
2022-10-26T04:42:44.235Z,13.57
2022-10-26T04:47:45.705Z,13.63
2022-10-26T04:52:51.532Z,13.70
2022-10-26T04:57:55.943Z,13.76
2022-10-26T05:03:05.176Z,13.83
2022-10-26T05:08:06.882Z,13.90
2022-10-26T05:13:09.438Z,13.92
2022-10-26T05:18:10.940Z,13.87
2022-10-26T05:23:12.464Z,13.85
2022-10-26T05:28:15.302Z,13.86
2022-10-26T05:33:16.799Z,13.89
2022-10-26T05:38:18.329Z,13.92
2022-10-26T05:43:21.874Z,13.89
2022-10-26T05:48:23.516Z,13.90
2022-10-26T05:53:24.906Z,13.87
2022-10-26T05:58:26.820Z,13.78
2022-10-26T06:04:03.275Z,13.69
2022-10-26T06:09:04.927Z,13.72
2022-10-26T06:14:07.284Z,13.74
2022-10-26T06:19:22.803Z,13.79
2022-10-26T06:24:39.848Z,13.78
2022-10-26T06:29:54.656Z,13.82
2022-10-26T06:35:25.449Z,13.91
2022-10-26T06:40:27.271Z,13.95
2022-10-26T06:45:29.121Z,13.99
2022-10-26T06:50:44.401Z,14.01
2022-10-26T06:55:49.731Z,13.91
2022-10-26T07:00:54.051Z,14.04
2022-10-26T07:05:55.612Z,14.19
2022-10-26T07:10:57.127Z,14.37
2022-10-26T07:15:59.275Z,14.53
2022-10-26T07:21:00.762Z,14.52
2022-10-26T07:26:02.227Z,14.49
2022-10-26T07:31:05.594Z,14.51
2022-10-26T07:36:08.640Z,14.69
2022-10-26T07:41:10.131Z,14.88
2022-10-26T07:46:12.753Z,15.05
2022-10-26T07:51:14.962Z,15.33
2022-10-26T07:56:16.446Z,15.59
2022-10-26T08:01:17.943Z,15.86
2022-10-26T08:06:20.158Z,16.05
2022-10-26T08:11:21.976Z,16.19
2022-10-26T08:16:23.780Z,16.61
2022-10-26T08:21:36.159Z,17.07
2022-10-26T08:26:41.840Z,17.56
2022-10-26T08:31:43.323Z,17.90
2022-10-26T08:36:46.921Z,18.25
2022-10-26T08:41:53.465Z,18.27
2022-10-26T08:47:00.756Z,18.76
2022-10-26T08:52:03.334Z,19.59
2022-10-26T08:57:16.189Z,21.16
2022-10-26T09:02:18.053Z,23.37
2022-10-26T09:07:40.457Z,23.82
2022-10-26T09:13:28.369Z,24.19
2022-10-26T09:18:57.802Z,24.86
2022-10-26T09:24:08.495Z,25.35
2022-10-26T09:29:13.560Z,24.78
2022-10-26T09:34:31.471Z,23.98
2022-10-26T09:39:42.337Z,24.79
2022-10-26T09:44:52.433Z,25.28
2022-10-26T09:49:58.404Z,24.91
2022-10-26T09:54:59.886Z,23.93
2022-10-26T10:00:01.335Z,22.88
2022-10-26T10:05:32.891Z,22.69
2022-10-26T10:11:07.529Z,22.67
2022-10-26T10:16:20.293Z,23.00
2022-10-26T10:21:22.225Z,23.38
2022-10-26T10:26:25.039Z,22.90
2022-10-26T10:31:30.016Z,22.75
2022-10-26T10:36:32.312Z,22.80
2022-10-26T10:41:36.646Z,23.09
2022-10-26T10:46:41.009Z,23.44
2022-10-26T10:51:44.131Z,23.38
2022-10-26T10:56:54.905Z,23.22
2022-10-26T11:02:23.371Z,23.11
2022-10-26T11:07:27.972Z,23.90
2022-10-26T11:12:38.909Z,24.13
2022-10-26T11:18:08.141Z,23.76
2022-10-26T11:23:20.869Z,24.05
2022-10-26T11:28:33.982Z,24.30
2022-10-26T11:33:47.376Z,24.16
2022-10-26T11:39:06.757Z,24.12
2022-10-26T11:44:34.505Z,23.79
2022-10-26T11:49:57.733Z,23.75
2022-10-26T11:55:04.708Z,23.73
2022-10-26T12:00:25.222Z,23.51
2022-10-26T12:05:50.238Z,23.32
2022-10-26T12:11:04.973Z,23.23
2022-10-26T12:16:32.860Z,23.03
2022-10-26T12:21:36.614Z,23.02
2022-10-26T12:26:41.906Z,22.99
2022-10-26T12:31:44.167Z,22.96
2022-10-26T12:36:57.670Z,22.92
2022-10-26T12:42:05.336Z,22.87
2022-10-26T12:47:08.757Z,22.75
2022-10-26T12:52:28.509Z,22.67
2022-10-26T12:57:50.009Z,22.67
2022-10-26T13:03:13.291Z,22.62
2022-10-26T13:08:15.694Z,22.59
2022-10-26T13:13:24.147Z,22.59
2022-10-26T13:18:27.249Z,22.64
2022-10-26T13:23:35.954Z,22.58
2022-10-26T13:28:37.332Z,22.51
2022-10-26T13:33:43.881Z,22.51
2022-10-26T13:38:47.254Z,22.46
2022-10-26T13:43:50.076Z,22.34
2022-10-26T13:48:53.064Z,22.28
2022-10-26T13:54:16.797Z,22.26
2022-10-26T14:04:29.006Z,22.20
2022-10-26T14:09:31.066Z,22.17
2022-10-26T14:14:36.364Z,22.09
2022-10-26T14:19:41.658Z,22.04
2022-10-26T14:30:21.111Z,22.01
2022-10-26T14:35:24.652Z,21.93
2022-10-26T14:40:34.055Z,21.89
2022-10-26T14:45:53.826Z,21.84
2022-10-26T14:51:21.201Z,21.76
2022-10-26T14:56:30.954Z,21.70
2022-10-26T15:01:36.210Z,21.63
2022-10-26T15:06:43.750Z,21.59
2022-10-26T15:11:48.274Z,21.56
2022-10-26T15:16:59.310Z,21.54
2022-10-26T15:22:00.842Z,21.52
2022-10-26T15:27:03.636Z,21.47
2022-10-26T15:32:18.384Z,21.41
2022-10-26T15:37:20.167Z,21.34
2022-10-26T15:42:21.846Z,21.24
2022-10-26T15:47:30.488Z,21.10
2022-10-26T15:52:32.371Z,20.99
2022-10-26T15:57:33.955Z,20.82
2022-10-26T16:02:37.870Z,20.65
2022-10-26T16:07:43.072Z,20.48
2022-10-26T16:12:44.541Z,20.28
2022-10-26T16:17:46.672Z,20.03
2022-10-26T16:22:49.280Z,19.72
2022-10-26T16:27:53.600Z,19.43
2022-10-26T16:32:55.041Z,19.25
2022-10-26T16:37:56.532Z,19.13
2022-10-26T16:42:58.009Z,19.07
2022-10-26T16:47:59.563Z,18.94
2022-10-26T16:53:00.983Z,18.69
2022-10-26T16:58:02.446Z,18.49
2022-10-26T17:03:04.467Z,18.39
2022-10-26T17:08:07.206Z,18.31
2022-10-26T17:13:08.615Z,18.18
2022-10-26T17:18:10.845Z,18.03
2022-10-26T17:23:12.267Z,17.85
2022-10-26T17:28:13.876Z,17.74
2022-10-26T17:33:15.317Z,17.62
2022-10-26T17:38:16.791Z,17.51
2022-10-26T17:43:18.402Z,17.43
2022-10-26T17:48:19.875Z,17.32
2022-10-26T17:53:21.430Z,17.15
2022-10-26T17:58:22.902Z,17.04
2022-10-26T18:03:24.359Z,16.95
2022-10-26T18:08:26.311Z,16.88
2022-10-26T18:13:33.846Z,16.79
2022-10-26T18:18:35.421Z,16.69
2022-10-26T18:23:38.165Z,16.62
2022-10-26T18:28:39.931Z,16.53
2022-10-26T18:33:41.636Z,16.45
2022-10-26T18:38:44.153Z,16.40
2022-10-26T18:43:51.033Z,16.32
2022-10-26T18:48:53.518Z,16.21
2022-10-26T18:53:56.761Z,16.13
2022-10-26T18:58:59.899Z,16.04
2022-10-26T19:04:07.024Z,15.95
2022-10-26T19:09:10.185Z,15.87
2022-10-26T19:14:13.060Z,15.74
2022-10-26T19:19:16.471Z,15.62
2022-10-26T19:24:22.937Z,15.55
2022-10-26T19:29:24.387Z,15.47
2022-10-26T19:34:26.144Z,15.43
2022-10-26T19:39:27.819Z,15.37
2022-10-26T19:44:29.259Z,15.33
2022-10-26T19:49:30.832Z,15.30
2022-10-26T19:54:32.386Z,15.23
2022-10-26T19:59:33.828Z,15.16
2022-10-26T20:04:35.283Z,15.13
2022-10-26T20:09:36.736Z,15.08
2022-10-26T20:14:39.481Z,15.01
2022-10-26T20:19:40.885Z,14.94
2022-10-26T20:24:43.341Z,14.82
2022-10-26T20:29:44.985Z,14.73
2022-10-26T20:34:46.604Z,14.64
2022-10-26T20:39:48.311Z,14.59
2022-10-26T20:44:57.635Z,14.52
2022-10-26T20:49:59.382Z,14.45
2022-10-26T20:55:15.412Z,14.38
2022-10-26T21:00:17.245Z,14.25
2022-10-26T21:05:21.270Z,14.18
2022-10-26T21:10:22.725Z,14.10
2022-10-26T21:15:24.257Z,14.03
2022-10-26T21:20:25.731Z,13.95
2022-10-26T21:25:27.214Z,13.89
2022-10-26T21:30:28.940Z,13.81
2022-10-26T21:35:30.484Z,13.73
2022-10-26T21:40:31.992Z,13.65
2022-10-26T21:45:33.462Z,13.59
2022-10-26T21:50:34.907Z,13.53
2022-10-26T21:55:36.334Z,13.47
2022-10-26T22:00:37.835Z,13.40
2022-10-26T22:05:43.580Z,13.37
2022-10-26T22:10:47.874Z,13.31
2022-10-26T22:15:49.602Z,13.27
2022-10-26T22:21:00.001Z,13.23
2022-10-26T22:26:12.572Z,13.15
2022-10-26T22:31:16.955Z,13.09
2022-10-26T22:36:18.821Z,13.08
2022-10-26T22:41:21.837Z,13.10
2022-10-26T22:46:26.713Z,13.09
2022-10-26T22:51:33.215Z,13.03
2022-10-26T22:56:35.821Z,12.97
2022-10-26T23:01:39.357Z,12.91
2022-10-26T23:06:41.550Z,12.87
2022-10-26T23:11:42.956Z,12.83
2022-10-26T23:16:44.392Z,12.79
2022-10-26T23:21:45.841Z,12.74
2022-10-26T23:26:47.290Z,12.72
2022-10-26T23:31:48.724Z,12.65
2022-10-26T23:36:52.020Z,12.49
2022-10-26T23:41:53.438Z,12.32
2022-10-26T23:46:54.884Z,12.18
2022-10-26T23:51:56.341Z,12.08
2022-10-26T23:56:57.869Z,12.04
